sensor_id;sensor_type;location;lat;lon;timestamp;P1;durP1;ratioP1;P2;durP2;ratioP2
79149;SDS011;68563;45.644;13.782;2023-03-14T00:01:13;6.53;;;3.80;;
79149;SDS011;68563;45.644;13.782;2023-03-14T00:03:40;7.38;;;3.97;;
79149;SDS011;68563;45.644;13.782;2023-03-14T00:06:06;6.38;;;3.35;;
79149;SDS011;68563;45.644;13.782;2023-03-14T00:08:32;8.00;;;3.40;;
79149;SDS011;68563;45.644;13.782;2023-03-14T00:10:57;7.63;;;3.50;;
79149;SDS011;68563;45.644;13.782;2023-03-14T00:13:23;6.63;;;3.50;;
79149;SDS011;68563;45.644;13.782;2023-03-14T00:15:49;7.47;;;3.63;;
79149;SDS011;68563;45.644;13.782;2023-03-14T00:18:15;6.70;;;3.30;;
79149;SDS011;68563;45.644;13.782;2023-03-14T00:20:40;5.78;;;3.40;;
79149;SDS011;68563;45.644;13.782;2023-03-14T00:23:06;6.68;;;3.30;;
79149;SDS011;68563;45.644;13.782;2023-03-14T00:25:31;5.75;;;3.22;;
79149;SDS011;68563;45.644;13.782;2023-03-14T00:27:57;5.50;;;3.08;;
79149;SDS011;68563;45.644;13.782;2023-03-14T00:30:22;8.20;;;3.22;;
79149;SDS011;68563;45.644;13.782;2023-03-14T00:32:48;5.78;;;3.10;;
79149;SDS011;68563;45.644;13.782;2023-03-14T00:35:13;5.00;;;3.05;;
79149;SDS011;68563;45.644;13.782;2023-03-14T00:37:38;6.00;;;3.10;;
79149;SDS011;68563;45.644;13.782;2023-03-14T00:40:04;7.18;;;3.45;;
79149;SDS011;68563;45.644;13.782;2023-03-14T00:42:32;5.53;;;3.20;;
79149;SDS011;68563;45.644;13.782;2023-03-14T00:44:57;6.70;;;2.92;;
79149;SDS011;68563;45.644;13.782;2023-03-14T00:47:22;5.70;;;2.92;;
79149;SDS011;68563;45.644;13.782;2023-03-14T00:49:48;4.75;;;3.08;;
79149;SDS011;68563;45.644;13.782;2023-03-14T00:52:13;5.10;;;2.88;;
79149;SDS011;68563;45.644;13.782;2023-03-14T00:54:39;5.45;;;2.90;;
79149;SDS011;68563;45.644;13.782;2023-03-14T00:57:04;6.45;;;3.08;;
79149;SDS011;68563;45.644;13.782;2023-03-14T00:59:29;4.93;;;2.97;;
79149;SDS011;68563;45.644;13.782;2023-03-14T01:01:55;4.82;;;2.85;;
79149;SDS011;68563;45.644;13.782;2023-03-14T01:04:20;6.60;;;3.20;;
79149;SDS011;68563;45.644;13.782;2023-03-14T01:06:46;4.97;;;2.50;;
79149;SDS011;68563;45.644;13.782;2023-03-14T01:09:11;4.95;;;2.50;;
79149;SDS011;68563;45.644;13.782;2023-03-14T01:11:36;5.30;;;2.75;;
79149;SDS011;68563;45.644;13.782;2023-03-14T01:14:02;4.88;;;2.55;;
79149;SDS011;68563;45.644;13.782;2023-03-14T01:16:29;4.55;;;2.60;;
79149;SDS011;68563;45.644;13.782;2023-03-14T01:18:56;4.47;;;2.70;;
79149;SDS011;68563;45.644;13.782;2023-03-14T01:21:26;4.60;;;2.60;;
79149;SDS011;68563;45.644;13.782;2023-03-14T01:23:54;4.45;;;2.58;;
79149;SDS011;68563;45.644;13.782;2023-03-14T01:26:21;3.97;;;2.97;;
79149;SDS011;68563;45.644;13.782;2023-03-14T01:28:49;3.88;;;2.28;;
79149;SDS011;68563;45.644;13.782;2023-03-14T01:31:16;3.92;;;2.47;;
79149;SDS011;68563;45.644;13.782;2023-03-14T01:33:42;4.65;;;2.70;;
79149;SDS011;68563;45.644;13.782;2023-03-14T01:36:08;6.30;;;2.15;;
79149;SDS011;68563;45.644;13.782;2023-03-14T01:38:35;4.00;;;2.35;;
79149;SDS011;68563;45.644;13.782;2023-03-14T01:41:01;5.30;;;2.47;;
79149;SDS011;68563;45.644;13.782;2023-03-14T01:43:28;4.40;;;2.55;;
79149;SDS011;68563;45.644;13.782;2023-03-14T01:49:14;4.60;;;2.47;;
79149;SDS011;68563;45.644;13.782;2023-03-14T01:56:46;3.60;;;2.20;;
79149;SDS011;68563;45.644;13.782;2023-03-14T01:59:17;4.25;;;2.38;;
79149;SDS011;68563;45.644;13.782;2023-03-14T02:01:43;3.70;;;2.13;;
79149;SDS011;68563;45.644;13.782;2023-03-14T02:04:11;4.15;;;2.30;;
79149;SDS011;68563;45.644;13.782;2023-03-14T02:06:40;3.97;;;2.30;;
79149;SDS011;68563;45.644;13.782;2023-03-14T02:09:13;4.97;;;2.47;;
79149;SDS011;68563;45.644;13.782;2023-03-14T02:11:39;3.25;;;2.10;;
79149;SDS011;68563;45.644;13.782;2023-03-14T02:14:05;3.58;;;2.13;;
79149;SDS011;68563;45.644;13.782;2023-03-14T02:16:31;3.58;;;2.30;;
79149;SDS011;68563;45.644;13.782;2023-03-14T02:18:57;3.67;;;2.17;;
79149;SDS011;68563;45.644;13.782;2023-03-14T02:21:38;3.20;;;2.00;;
79149;SDS011;68563;45.644;13.782;2023-03-14T02:27:04;5.10;;;2.00;;
79149;SDS011;68563;45.644;13.782;2023-03-14T02:29:30;3.20;;;2.10;;
79149;SDS011;68563;45.644;13.782;2023-03-14T02:31:58;3.83;;;1.92;;
79149;SDS011;68563;45.644;13.782;2023-03-14T02:34:24;3.63;;;2.20;;
79149;SDS011;68563;45.644;13.782;2023-03-14T02:36:50;3.75;;;1.90;;
79149;SDS011;68563;45.644;13.782;2023-03-14T02:39:29;3.83;;;2.08;;
79149;SDS011;68563;45.644;13.782;2023-03-14T02:42:00;4.88;;;2.22;;
79149;SDS011;68563;45.644;13.782;2023-03-14T02:44:25;3.55;;;2.13;;
79149;SDS011;68563;45.644;13.782;2023-03-14T02:46:51;4.00;;;1.88;;
79149;SDS011;68563;45.644;13.782;2023-03-14T02:49:16;3.45;;;1.70;;
79149;SDS011;68563;45.644;13.782;2023-03-14T02:51:43;3.47;;;2.00;;
79149;SDS011;68563;45.644;13.782;2023-03-14T02:54:10;3.65;;;1.90;;
79149;SDS011;68563;45.644;13.782;2023-03-14T02:56:35;3.47;;;1.92;;
79149;SDS011;68563;45.644;13.782;2023-03-14T02:59:05;3.92;;;1.70;;
79149;SDS011;68563;45.644;13.782;2023-03-14T03:01:30;4.22;;;2.00;;
79149;SDS011;68563;45.644;13.782;2023-03-14T03:03:56;3.45;;;1.95;;
79149;SDS011;68563;45.644;13.782;2023-03-14T03:06:21;3.58;;;1.88;;
79149;SDS011;68563;45.644;13.782;2023-03-14T03:08:47;4.47;;;2.00;;
79149;SDS011;68563;45.644;13.782;2023-03-14T03:11:12;2.67;;;2.03;;
79149;SDS011;68563;45.644;13.782;2023-03-14T03:13:38;3.40;;;1.88;;
79149;SDS011;68563;45.644;13.782;2023-03-14T03:16:03;3.78;;;1.60;;
79149;SDS011;68563;45.644;13.782;2023-03-14T03:18:29;3.63;;;1.83;;
79149;SDS011;68563;45.644;13.782;2023-03-14T03:20:55;2.40;;;1.50;;
79149;SDS011;68563;45.644;13.782;2023-03-14T03:23:20;5.57;;;1.90;;
79149;SDS011;68563;45.644;13.782;2023-03-14T03:25:49;3.95;;;1.77;;
79149;SDS011;68563;45.644;13.782;2023-03-14T03:28:15;2.63;;;1.70;;
79149;SDS011;68563;45.644;13.782;2023-03-14T03:30:40;2.97;;;1.50;;
79149;SDS011;68563;45.644;13.782;2023-03-14T03:33:06;3.03;;;1.67;;
79149;SDS011;68563;45.644;13.782;2023-03-14T03:35:32;4.30;;;1.60;;
79149;SDS011;68563;45.644;13.782;2023-03-14T03:37:58;3.50;;;1.52;;
79149;SDS011;68563;45.644;13.782;2023-03-14T03:40:23;2.50;;;1.48;;
79149;SDS011;68563;45.644;13.782;2023-03-14T03:42:49;3.85;;;1.80;;
79149;SDS011;68563;45.644;13.782;2023-03-14T03:45:14;3.35;;;1.80;;
79149;SDS011;68563;45.644;13.782;2023-03-14T03:47:39;3.03;;;1.40;;
79149;SDS011;68563;45.644;13.782;2023-03-14T03:50:05;2.78;;;1.48;;
79149;SDS011;68563;45.644;13.782;2023-03-14T03:52:31;2.65;;;1.52;;
79149;SDS011;68563;45.644;13.782;2023-03-14T03:54:56;2.80;;;1.67;;
79149;SDS011;68563;45.644;13.782;2023-03-14T03:57:21;3.63;;;1.50;;
79149;SDS011;68563;45.644;13.782;2023-03-14T03:59:47;2.95;;;1.55;;
79149;SDS011;68563;45.644;13.782;2023-03-14T04:02:12;2.88;;;1.60;;
79149;SDS011;68563;45.644;13.782;2023-03-14T04:04:37;2.67;;;1.63;;
79149;SDS011;68563;45.644;13.782;2023-03-14T04:07:03;3.00;;;1.40;;
79149;SDS011;68563;45.644;13.782;2023-03-14T04:09:29;2.58;;;1.50;;
79149;SDS011;68563;45.644;13.782;2023-03-14T04:11:55;2.58;;;1.60;;
79149;SDS011;68563;45.644;13.782;2023-03-14T04:14:20;2.67;;;1.60;;
79149;SDS011;68563;45.644;13.782;2023-03-14T04:16:46;3.58;;;1.58;;
79149;SDS011;68563;45.644;13.782;2023-03-14T04:19:11;4.50;;;1.83;;
79149;SDS011;68563;45.644;13.782;2023-03-14T04:21:37;2.67;;;1.40;;
79149;SDS011;68563;45.644;13.782;2023-03-14T04:24:05;2.92;;;1.40;;
79149;SDS011;68563;45.644;13.782;2023-03-14T04:26:31;4.00;;;1.60;;
79149;SDS011;68563;45.644;13.782;2023-03-14T04:28:56;3.13;;;1.52;;
79149;SDS011;68563;45.644;13.782;2023-03-14T04:31:22;2.83;;;1.30;;
79149;SDS011;68563;45.644;13.782;2023-03-14T04:33:48;3.08;;;1.45;;
79149;SDS011;68563;45.644;13.782;2023-03-14T04:36:13;2.38;;;1.40;;
79149;SDS011;68563;45.644;13.782;2023-03-14T04:38:39;3.95;;;1.70;;
79149;SDS011;68563;45.644;13.782;2023-03-14T04:41:05;2.13;;;1.42;;
79149;SDS011;68563;45.644;13.782;2023-03-14T04:43:31;2.47;;;1.33;;
79149;SDS011;68563;45.644;13.782;2023-03-14T04:45:57;2.88;;;1.40;;
79149;SDS011;68563;45.644;13.782;2023-03-14T04:48:23;3.13;;;1.48;;
79149;SDS011;68563;45.644;13.782;2023-03-14T04:50:49;1.90;;;1.15;;
79149;SDS011;68563;45.644;13.782;2023-03-14T04:53:16;3.15;;;1.45;;
79149;SDS011;68563;45.644;13.782;2023-03-14T04:55:42;3.38;;;1.30;;
79149;SDS011;68563;45.644;13.782;2023-03-14T04:58:12;2.95;;;1.55;;
79149;SDS011;68563;45.644;13.782;2023-03-14T05:00:37;3.63;;;1.80;;
79149;SDS011;68563;45.644;13.782;2023-03-14T05:03:03;3.15;;;1.60;;
79149;SDS011;68563;45.644;13.782;2023-03-14T05:05:28;1.90;;;1.17;;
79149;SDS011;68563;45.644;13.782;2023-03-14T05:07:53;3.13;;;1.48;;
79149;SDS011;68563;45.644;13.782;2023-03-14T05:10:19;3.08;;;1.58;;
79149;SDS011;68563;45.644;13.782;2023-03-14T05:12:44;1.80;;;1.25;;
79149;SDS011;68563;45.644;13.782;2023-03-14T05:15:09;1.73;;;1.10;;
79149;SDS011;68563;45.644;13.782;2023-03-14T05:17:35;2.67;;;1.30;;
79149;SDS011;68563;45.644;13.782;2023-03-14T05:20:01;2.65;;;1.30;;
79149;SDS011;68563;45.644;13.782;2023-03-14T05:22:29;3.20;;;1.40;;
79149;SDS011;68563;45.644;13.782;2023-03-14T05:24:54;1.90;;;1.30;;
79149;SDS011;68563;45.644;13.782;2023-03-14T05:27:21;3.60;;;1.23;;
79149;SDS011;68563;45.644;13.782;2023-03-14T05:29:47;2.58;;;1.40;;
79149;SDS011;68563;45.644;13.782;2023-03-14T05:32:12;2.78;;;1.40;;
79149;SDS011;68563;45.644;13.782;2023-03-14T05:34:38;3.17;;;1.45;;
79149;SDS011;68563;45.644;13.782;2023-03-14T05:37:04;2.33;;;1.10;;
79149;SDS011;68563;45.644;13.782;2023-03-14T05:39:29;2.88;;;1.17;;
79149;SDS011;68563;45.644;13.782;2023-03-14T05:41:54;2.70;;;1.55;;
79149;SDS011;68563;45.644;13.782;2023-03-14T05:44:20;2.70;;;1.20;;
79149;SDS011;68563;45.644;13.782;2023-03-14T05:46:46;2.67;;;1.35;;
79149;SDS011;68563;45.644;13.782;2023-03-14T05:49:11;2.22;;;1.20;;
79149;SDS011;68563;45.644;13.782;2023-03-14T05:51:37;3.17;;;1.40;;
79149;SDS011;68563;45.644;13.782;2023-03-14T05:54:02;2.45;;;1.20;;
79149;SDS011;68563;45.644;13.782;2023-03-14T05:56:27;2.25;;;1.30;;
79149;SDS011;68563;45.644;13.782;2023-03-14T05:58:53;2.50;;;1.13;;
79149;SDS011;68563;45.644;13.782;2023-03-14T06:01:18;2.47;;;1.25;;
79149;SDS011;68563;45.644;13.782;2023-03-14T06:03:44;1.92;;;1.30;;
79149;SDS011;68563;45.644;13.782;2023-03-14T06:06:09;3.50;;;1.55;;
79149;SDS011;68563;45.644;13.782;2023-03-14T06:08:34;2.90;;;1.20;;
79149;SDS011;68563;45.644;13.782;2023-03-14T06:11:00;3.05;;;1.13;;
79149;SDS011;68563;45.644;13.782;2023-03-14T06:13:28;1.83;;;1.27;;
79149;SDS011;68563;45.644;13.782;2023-03-14T06:15:53;2.75;;;1.40;;
79149;SDS011;68563;45.644;13.782;2023-03-14T06:18:18;2.33;;;1.33;;
79149;SDS011;68563;45.644;13.782;2023-03-14T06:20:44;2.42;;;1.10;;
79149;SDS011;68563;45.644;13.782;2023-03-14T06:23:10;1.92;;;1.15;;
79149;SDS011;68563;45.644;13.782;2023-03-14T06:25:35;2.97;;;1.20;;
79149;SDS011;68563;45.644;13.782;2023-03-14T06:28:01;2.60;;;1.23;;
79149;SDS011;68563;45.644;13.782;2023-03-14T06:30:27;2.65;;;1.40;;
79149;SDS011;68563;45.644;13.782;2023-03-14T06:32:52;2.45;;;1.55;;
79149;SDS011;68563;45.644;13.782;2023-03-14T06:35:18;2.90;;;1.05;;
79149;SDS011;68563;45.644;13.782;2023-03-14T06:37:44;2.60;;;1.20;;
79149;SDS011;68563;45.644;13.782;2023-03-14T06:40:10;3.08;;;1.30;;
79149;SDS011;68563;45.644;13.782;2023-03-14T06:42:39;2.92;;;1.15;;
79149;SDS011;68563;45.644;13.782;2023-03-14T06:45:04;3.67;;;1.33;;
79149;SDS011;68563;45.644;13.782;2023-03-14T06:47:30;3.30;;;1.15;;
79149;SDS011;68563;45.644;13.782;2023-03-14T06:49:56;2.00;;;1.10;;
79149;SDS011;68563;45.644;13.782;2023-03-14T06:52:21;4.25;;;1.45;;
79149;SDS011;68563;45.644;13.782;2023-03-14T06:54:46;3.47;;;1.42;;
79149;SDS011;68563;45.644;13.782;2023-03-14T06:57:12;3.30;;;1.33;;
79149;SDS011;68563;45.644;13.782;2023-03-14T06:59:37;2.40;;;1.27;;
79149;SDS011;68563;45.644;13.782;2023-03-14T07:02:03;2.53;;;1.30;;
79149;SDS011;68563;45.644;13.782;2023-03-14T07:04:28;1.90;;;1.20;;
79149;SDS011;68563;45.644;13.782;2023-03-14T07:06:53;3.97;;;1.52;;
79149;SDS011;68563;45.644;13.782;2023-03-14T07:09:19;2.97;;;1.33;;
79149;SDS011;68563;45.644;13.782;2023-03-14T07:11:44;4.18;;;1.33;;
79149;SDS011;68563;45.644;13.782;2023-03-14T07:14:10;4.18;;;1.27;;
79149;SDS011;68563;45.644;13.782;2023-03-14T07:16:35;3.08;;;1.00;;
79149;SDS011;68563;45.644;13.782;2023-03-14T07:19:01;2.47;;;1.50;;
79149;SDS011;68563;45.644;13.782;2023-03-14T07:21:27;13.70;;;1.55;;
79149;SDS011;68563;45.644;13.782;2023-03-14T07:23:52;2.90;;;1.10;;
79149;SDS011;68563;45.644;13.782;2023-03-14T07:26:18;4.05;;;1.25;;
79149;SDS011;68563;45.644;13.782;2023-03-14T07:28:43;5.40;;;1.10;;
79149;SDS011;68563;45.644;13.782;2023-03-14T07:31:09;7.18;;;1.35;;
79149;SDS011;68563;45.644;13.782;2023-03-14T07:33:34;3.47;;;1.13;;
79149;SDS011;68563;45.644;13.782;2023-03-14T07:36:00;1.95;;;1.30;;
79149;SDS011;68563;45.644;13.782;2023-03-14T07:38:25;1.77;;;0.98;;
79149;SDS011;68563;45.644;13.782;2023-03-14T07:40:57;9.95;;;1.48;;
79149;SDS011;68563;45.644;13.782;2023-03-14T07:43:23;3.63;;;1.58;;
79149;SDS011;68563;45.644;13.782;2023-03-14T07:45:48;3.08;;;1.17;;
79149;SDS011;68563;45.644;13.782;2023-03-14T07:48:14;2.28;;;0.82;;
79149;SDS011;68563;45.644;13.782;2023-03-14T07:50:39;4.82;;;1.20;;
79149;SDS011;68563;45.644;13.782;2023-03-14T07:53:05;17.25;;;1.27;;
79149;SDS011;68563;45.644;13.782;2023-03-14T07:55:30;6.03;;;1.42;;
79149;SDS011;68563;45.644;13.782;2023-03-14T07:57:55;4.55;;;1.42;;
79149;SDS011;68563;45.644;13.782;2023-03-14T08:00:21;5.00;;;1.10;;
79149;SDS011;68563;45.644;13.782;2023-03-14T08:02:46;5.25;;;1.40;;
79149;SDS011;68563;45.644;13.782;2023-03-14T08:05:11;4.85;;;1.20;;
79149;SDS011;68563;45.644;13.782;2023-03-14T08:07:37;3.95;;;1.30;;
79149;SDS011;68563;45.644;13.782;2023-03-14T08:10:03;9.90;;;1.58;;
79149;SDS011;68563;45.644;13.782;2023-03-14T08:12:29;7.32;;;1.55;;
79149;SDS011;68563;45.644;13.782;2023-03-14T08:14:54;6.32;;;1.73;;
79149;SDS011;68563;45.644;13.782;2023-03-14T08:17:20;2.78;;;1.23;;
79149;SDS011;68563;45.644;13.782;2023-03-14T08:19:45;4.68;;;1.75;;
79149;SDS011;68563;45.644;13.782;2023-03-14T08:22:10;6.78;;;1.48;;
79149;SDS011;68563;45.644;13.782;2023-03-14T08:24:36;4.85;;;1.48;;
79149;SDS011;68563;45.644;13.782;2023-03-14T08:27:01;7.82;;;1.73;;
79149;SDS011;68563;45.644;13.782;2023-03-14T08:29:26;6.20;;;1.90;;
79149;SDS011;68563;45.644;13.782;2023-03-14T08:31:52;5.03;;;1.75;;
79149;SDS011;68563;45.644;13.782;2023-03-14T08:34:18;6.07;;;1.52;;
79149;SDS011;68563;45.644;13.782;2023-03-14T08:36:44;10.73;;;1.88;;
79149;SDS011;68563;45.644;13.782;2023-03-14T08:39:10;9.82;;;2.20;;
79149;SDS011;68563;45.644;13.782;2023-03-14T08:41:35;7.95;;;2.20;;
79149;SDS011;68563;45.644;13.782;2023-03-14T08:46:30;7.40;;;2.10;;
79149;SDS011;68563;45.644;13.782;2023-03-14T08:48:56;8.73;;;2.42;;
79149;SDS011;68563;45.644;13.782;2023-03-14T08:51:21;7.57;;;2.55;;
79149;SDS011;68563;45.644;13.782;2023-03-14T08:53:46;11.07;;;2.58;;
79149;SDS011;68563;45.644;13.782;2023-03-14T08:56:12;8.68;;;2.70;;
79149;SDS011;68563;45.644;13.782;2023-03-14T08:58:37;13.82;;;2.50;;
79149;SDS011;68563;45.644;13.782;2023-03-14T09:01:04;10.98;;;2.75;;
79149;SDS011;68563;45.644;13.782;2023-03-14T09:03:33;11.40;;;2.47;;
79149;SDS011;68563;45.644;13.782;2023-03-14T09:06:06;10.35;;;2.63;;
79149;SDS011;68563;45.644;13.782;2023-03-14T09:08:33;8.77;;;2.30;;
79149;SDS011;68563;45.644;13.782;2023-03-14T09:10:59;8.98;;;2.50;;
79149;SDS011;68563;45.644;13.782;2023-03-14T09:13:25;8.50;;;2.55;;
79149;SDS011;68563;45.644;13.782;2023-03-14T09:15:53;7.70;;;2.33;;
79149;SDS011;68563;45.644;13.782;2023-03-14T09:18:20;7.38;;;1.92;;
79149;SDS011;68563;45.644;13.782;2023-03-14T09:20:46;6.22;;;2.25;;
79149;SDS011;68563;45.644;13.782;2023-03-14T09:23:12;8.10;;;2.28;;
79149;SDS011;68563;45.644;13.782;2023-03-14T09:25:37;7.57;;;2.28;;
79149;SDS011;68563;45.644;13.782;2023-03-14T09:28:03;12.43;;;2.53;;
79149;SDS011;68563;45.644;13.782;2023-03-14T09:30:29;5.90;;;2.15;;
79149;SDS011;68563;45.644;13.782;2023-03-14T09:32:54;8.40;;;2.10;;
79149;SDS011;68563;45.644;13.782;2023-03-14T09:35:19;6.15;;;1.92;;
79149;SDS011;68563;45.644;13.782;2023-03-14T09:37:45;5.47;;;1.95;;
79149;SDS011;68563;45.644;13.782;2023-03-14T09:40:12;6.60;;;2.10;;
79149;SDS011;68563;45.644;13.782;2023-03-14T09:42:39;6.85;;;2.10;;
79149;SDS011;68563;45.644;13.782;2023-03-14T09:45:06;6.57;;;2.00;;
79149;SDS011;68563;45.644;13.782;2023-03-14T09:47:37;5.35;;;1.90;;
79149;SDS011;68563;45.644;13.782;2023-03-14T09:50:05;4.47;;;1.90;;
79149;SDS011;68563;45.644;13.782;2023-03-14T09:52:37;5.57;;;1.70;;
79149;SDS011;68563;45.644;13.782;2023-03-14T09:55:07;4.95;;;2.08;;
79149;SDS011;68563;45.644;13.782;2023-03-14T09:57:38;6.35;;;1.77;;
79149;SDS011;68563;45.644;13.782;2023-03-14T10:00:27;4.15;;;1.60;;
79149;SDS011;68563;45.644;13.782;2023-03-14T10:02:54;5.60;;;2.05;;
79149;SDS011;68563;45.644;13.782;2023-03-14T10:05:23;4.03;;;1.60;;
79149;SDS011;68563;45.644;13.782;2023-03-14T10:07:50;4.85;;;1.77;;
79149;SDS011;68563;45.644;13.782;2023-03-14T10:10:20;4.63;;;1.90;;
79149;SDS011;68563;45.644;13.782;2023-03-14T10:12:47;6.50;;;1.60;;
79149;SDS011;68563;45.644;13.782;2023-03-14T10:15:25;3.88;;;1.75;;
79149;SDS011;68563;45.644;13.782;2023-03-14T10:17:52;4.97;;;1.75;;
79149;SDS011;68563;45.644;13.782;2023-03-14T10:23:02;4.95;;;1.73;;
79149;SDS011;68563;45.644;13.782;2023-03-14T10:25:31;3.10;;;1.52;;
79149;SDS011;68563;45.644;13.782;2023-03-14T10:27:58;5.25;;;1.52;;
79149;SDS011;68563;45.644;13.782;2023-03-14T10:30:37;4.57;;;1.77;;
79149;SDS011;68563;45.644;13.782;2023-03-14T10:35:43;2.70;;;1.23;;
79149;SDS011;68563;45.644;13.782;2023-03-14T10:38:13;3.50;;;1.45;;
79149;SDS011;68563;45.644;13.782;2023-03-14T10:40:47;5.32;;;1.48;;
79149;SDS011;68563;45.644;13.782;2023-03-14T10:43:17;4.32;;;1.70;;
79149;SDS011;68563;45.644;13.782;2023-03-14T10:45:57;3.92;;;1.27;;
79149;SDS011;68563;45.644;13.782;2023-03-14T10:48:33;4.53;;;1.60;;
79149;SDS011;68563;45.644;13.782;2023-03-14T10:54:13;4.32;;;1.60;;
79149;SDS011;68563;45.644;13.782;2023-03-14T10:56:26;6.68;;;1.58;;
79149;SDS011;68563;45.644;13.782;2023-03-14T10:58:57;6.63;;;1.70;;
79149;SDS011;68563;45.644;13.782;2023-03-14T11:07:26;4.13;;;1.70;;
79149;SDS011;68563;45.644;13.782;2023-03-14T11:23:27;6.10;;;1.70;;
79149;SDS011;68563;45.644;13.782;2023-03-14T11:28:47;6.10;;;1.60;;
79149;SDS011;68563;45.644;13.782;2023-03-14T11:31:23;4.20;;;1.70;;
79149;SDS011;68563;45.644;13.782;2023-03-14T11:34:06;6.78;;;1.73;;
79149;SDS011;68563;45.644;13.782;2023-03-14T11:39:16;3.92;;;1.50;;
79149;SDS011;68563;45.644;13.782;2023-03-14T11:41:51;4.40;;;1.75;;
79149;SDS011;68563;45.644;13.782;2023-03-14T11:44:19;3.10;;;1.45;;
79149;SDS011;68563;45.644;13.782;2023-03-14T11:49:28;2.95;;;1.40;;
79149;SDS011;68563;45.644;13.782;2023-03-14T11:52:11;4.22;;;1.40;;
79149;SDS011;68563;45.644;13.782;2023-03-14T11:54:52;4.55;;;1.50;;
79149;SDS011;68563;45.644;13.782;2023-03-14T11:57:19;3.88;;;1.40;;
79149;SDS011;68563;45.644;13.782;2023-03-14T12:10:48;3.63;;;1.55;;
79149;SDS011;68563;45.644;13.782;2023-03-14T12:13:17;4.68;;;1.73;;
79149;SDS011;68563;45.644;13.782;2023-03-14T12:15:50;2.47;;;1.30;;
79149;SDS011;68563;45.644;13.782;2023-03-14T12:18:21;2.50;;;1.20;;
79149;SDS011;68563;45.644;13.782;2023-03-14T12:20:56;3.45;;;1.45;;
79149;SDS011;68563;45.644;13.782;2023-03-14T12:23:24;3.72;;;1.55;;
79149;SDS011;68563;45.644;13.782;2023-03-14T12:26:08;2.75;;;1.45;;
79149;SDS011;68563;45.644;13.782;2023-03-14T12:28:38;3.33;;;1.35;;
79149;SDS011;68563;45.644;13.782;2023-03-14T12:34:10;3.15;;;1.40;;
79149;SDS011;68563;45.644;13.782;2023-03-14T12:37:16;4.07;;;1.42;;
79149;SDS011;68563;45.644;13.782;2023-03-14T12:44:53;5.97;;;2.10;;
79149;SDS011;68563;45.644;13.782;2023-03-14T12:50:55;3.75;;;1.40;;
79149;SDS011;68563;45.644;13.782;2023-03-14T12:56:26;4.63;;;1.67;;
79149;SDS011;68563;45.644;13.782;2023-03-14T13:02:29;6.57;;;1.60;;
79149;SDS011;68563;45.644;13.782;2023-03-14T13:05:05;3.35;;;1.33;;
79149;SDS011;68563;45.644;13.782;2023-03-14T13:12:37;4.68;;;1.63;;
79149;SDS011;68563;45.644;13.782;2023-03-14T13:15:07;5.00;;;1.65;;
79149;SDS011;68563;45.644;13.782;2023-03-14T13:17:41;3.47;;;1.40;;
79149;SDS011;68563;45.644;13.782;2023-03-14T13:20:18;5.90;;;1.70;;
79149;SDS011;68563;45.644;13.782;2023-03-14T13:25:15;2.80;;;1.48;;
79149;SDS011;68563;45.644;13.782;2023-03-14T13:27:43;4.40;;;1.67;;
79149;SDS011;68563;45.644;13.782;2023-03-14T13:32:47;6.20;;;1.90;;
79149;SDS011;68563;45.644;13.782;2023-03-14T13:35:18;6.32;;;1.48;;
79149;SDS011;68563;45.644;13.782;2023-03-14T13:37:53;4.85;;;1.60;;
79149;SDS011;68563;45.644;13.782;2023-03-14T13:40:23;9.02;;;1.75;;
79149;SDS011;68563;45.644;13.782;2023-03-14T13:42:59;3.95;;;1.65;;
79149;SDS011;68563;45.644;13.782;2023-03-14T13:47:52;4.43;;;2.07;;
79149;SDS011;68563;45.644;13.782;2023-03-14T13:50:18;4.32;;;1.85;;
79149;SDS011;68563;45.644;13.782;2023-03-14T13:52:44;4.80;;;1.67;;
79149;SDS011;68563;45.644;13.782;2023-03-14T13:55:15;3.63;;;1.52;;
79149;SDS011;68563;45.644;13.782;2023-03-14T13:57:44;4.75;;;1.70;;
79149;SDS011;68563;45.644;13.782;2023-03-14T14:02:52;3.97;;;1.70;;
79149;SDS011;68563;45.644;13.782;2023-03-14T14:05:23;5.03;;;2.00;;
79149;SDS011;68563;45.644;13.782;2023-03-14T14:07:53;5.32;;;1.88;;
79149;SDS011;68563;45.644;13.782;2023-03-14T14:10:18;3.67;;;1.55;;
79149;SDS011;68563;45.644;13.782;2023-03-14T14:15:28;4.28;;;1.67;;
79149;SDS011;68563;45.644;13.782;2023-03-14T14:18:16;6.88;;;2.00;;
79149;SDS011;68563;45.644;13.782;2023-03-14T14:20:44;7.38;;;1.92;;
79149;SDS011;68563;45.644;13.782;2023-03-14T14:23:14;3.75;;;1.80;;
79149;SDS011;68563;45.644;13.782;2023-03-14T14:25:44;4.93;;;2.15;;
79149;SDS011;68563;45.644;13.782;2023-03-14T14:28:24;3.67;;;2.10;;
79149;SDS011;68563;45.644;13.782;2023-03-14T14:33:56;5.68;;;1.92;;
79149;SDS011;68563;45.644;13.782;2023-03-14T14:36:24;7.20;;;1.70;;
79149;SDS011;68563;45.644;13.782;2023-03-14T14:38:53;4.32;;;1.77;;
79149;SDS011;68563;45.644;13.782;2023-03-14T14:41:26;3.65;;;1.83;;
79149;SDS011;68563;45.644;13.782;2023-03-14T14:43:53;3.88;;;1.83;;
79149;SDS011;68563;45.644;13.782;2023-03-14T14:46:19;5.00;;;2.05;;
79149;SDS011;68563;45.644;13.782;2023-03-14T14:48:44;6.40;;;2.10;;
79149;SDS011;68563;45.644;13.782;2023-03-14T14:51:21;4.60;;;1.80;;
79149;SDS011;68563;45.644;13.782;2023-03-14T14:53:59;5.40;;;2.10;;
79149;SDS011;68563;45.644;13.782;2023-03-14T14:56:34;6.85;;;1.85;;
79149;SDS011;68563;45.644;13.782;2023-03-14T14:59:01;6.25;;;2.00;;
79149;SDS011;68563;45.644;13.782;2023-03-14T15:01:32;3.95;;;1.92;;
79149;SDS011;68563;45.644;13.782;2023-03-14T15:04:03;3.28;;;1.52;;
79149;SDS011;68563;45.644;13.782;2023-03-14T15:06:35;3.25;;;1.80;;
79149;SDS011;68563;45.644;13.782;2023-03-14T15:09:00;4.15;;;1.75;;
79149;SDS011;68563;45.644;13.782;2023-03-14T15:11:26;4.93;;;1.77;;
79149;SDS011;68563;45.644;13.782;2023-03-14T15:13:52;4.47;;;1.80;;
79149;SDS011;68563;45.644;13.782;2023-03-14T15:16:19;3.03;;;1.70;;
79149;SDS011;68563;45.644;13.782;2023-03-14T15:18:48;7.25;;;2.10;;
79149;SDS011;68563;45.644;13.782;2023-03-14T15:21:18;3.35;;;1.80;;
79149;SDS011;68563;45.644;13.782;2023-03-14T15:23:43;5.65;;;2.13;;
79149;SDS011;68563;45.644;13.782;2023-03-14T15:26:16;4.43;;;1.90;;
79149;SDS011;68563;45.644;13.782;2023-03-14T15:28:44;5.47;;;2.10;;
79149;SDS011;68563;45.644;13.782;2023-03-14T15:31:11;4.80;;;1.90;;
79149;SDS011;68563;45.644;13.782;2023-03-14T15:33:37;5.60;;;2.00;;
79149;SDS011;68563;45.644;13.782;2023-03-14T15:36:03;4.28;;;2.28;;
79149;SDS011;68563;45.644;13.782;2023-03-14T15:38:29;4.93;;;1.95;;
79149;SDS011;68563;45.644;13.782;2023-03-14T15:40:55;5.10;;;2.10;;
79149;SDS011;68563;45.644;13.782;2023-03-14T15:43:20;5.93;;;2.72;;
79149;SDS011;68563;45.644;13.782;2023-03-14T15:45:46;9.15;;;4.85;;
79149;SDS011;68563;45.644;13.782;2023-03-14T15:48:12;13.18;;;6.55;;
79149;SDS011;68563;45.644;13.782;2023-03-14T15:50:41;18.65;;;8.27;;
79149;SDS011;68563;45.644;13.782;2023-03-14T15:53:06;15.98;;;8.30;;
79149;SDS011;68563;45.644;13.782;2023-03-14T15:55:32;16.30;;;7.90;;
79149;SDS011;68563;45.644;13.782;2023-03-14T15:57:57;17.80;;;8.88;;
79149;SDS011;68563;45.644;13.782;2023-03-14T16:00:24;15.60;;;8.43;;
79149;SDS011;68563;45.644;13.782;2023-03-14T16:02:49;17.15;;;8.60;;
79149;SDS011;68563;45.644;13.782;2023-03-14T16:05:15;17.30;;;8.75;;
79149;SDS011;68563;45.644;13.782;2023-03-14T16:07:41;15.73;;;8.73;;
79149;SDS011;68563;45.644;13.782;2023-03-14T16:10:07;17.48;;;9.15;;
79149;SDS011;68563;45.644;13.782;2023-03-14T16:12:33;16.88;;;9.45;;
79149;SDS011;68563;45.644;13.782;2023-03-14T16:14:59;15.05;;;8.55;;